Aviation Digital Data Service (ADDS)

Output produced by METARs form (0501 UTC 02 March 2015)
found at http://aviationweather.gov/adds/metars/
 
KFNT 012320Z 0200/0224 25006KT P6SM BKN028 BKN200 
     FM020500 27012G22KT P6SM OVC024 
     FM021300 29010KT P6SM SCT035